sensor_id;sensor_type;location;lat;lon;timestamp;pressure;altitude;pressure_sealevel;temperature;humidity
23303;BME280;11820;48.738;9.092;2023-03-13T00:00:19;95830.69;;;7.70;nan
23303;BME280;11820;48.738;9.092;2023-03-13T00:02:45;95823.38;;;7.73;nan
23303;BME280;11820;48.738;9.092;2023-03-13T00:05:11;95820.41;;;7.76;nan
23303;BME280;11820;48.738;9.092;2023-03-13T00:07:37;95823.59;;;7.78;nan
23303;BME280;11820;48.738;9.092;2023-03-13T00:10:02;95811.00;;;7.83;nan
23303;BME280;11820;48.738;9.092;2023-03-13T00:12:28;95815.94;;;7.85;nan
23303;BME280;11820;48.738;9.092;2023-03-13T00:14:53;95817.34;;;7.87;nan
23303;BME280;11820;48.738;9.092;2023-03-13T00:17:19;95814.78;;;7.87;nan
23303;BME280;11820;48.738;9.092;2023-03-13T00:19:44;95822.91;;;7.91;nan
23303;BME280;11820;48.738;9.092;2023-03-13T00:22:09;95819.38;;;7.92;nan
23303;BME280;11820;48.738;9.092;2023-03-13T00:24:35;95821.09;;;7.85;nan
23303;BME280;11820;48.738;9.092;2023-03-13T00:27:00;95816.91;;;7.84;nan
23303;BME280;11820;48.738;9.092;2023-03-13T00:29:28;95816.91;;;7.84;nan
23303;BME280;11820;48.738;9.092;2023-03-13T00:31:54;95819.31;;;7.85;nan
23303;BME280;11820;48.738;9.092;2023-03-13T00:34:19;95816.38;;;7.88;nan
23303;BME280;11820;48.738;9.092;2023-03-13T00:36:44;95809.84;;;7.92;nan
23303;BME280;11820;48.738;9.092;2023-03-13T00:39:10;95807.88;;;7.94;nan
23303;BME280;11820;48.738;9.092;2023-03-13T00:41:36;95806.72;;;7.97;nan
23303;BME280;11820;48.738;9.092;2023-03-13T00:44:01;95807.94;;;8.00;nan
23303;BME280;11820;48.738;9.092;2023-03-13T00:46:28;95797.63;;;8.00;nan
23303;BME280;11820;48.738;9.092;2023-03-13T00:48:54;95802.13;;;7.92;nan
23303;BME280;11820;48.738;9.092;2023-03-13T00:51:22;95800.94;;;7.88;nan
23303;BME280;11820;48.738;9.092;2023-03-13T00:53:51;95798.41;;;7.95;nan
23303;BME280;11820;48.738;9.092;2023-03-13T00:56:18;95792.50;;;8.00;nan
23303;BME280;11820;48.738;9.092;2023-03-13T00:58:44;95788.72;;;8.03;nan
23303;BME280;11820;48.738;9.092;2023-03-13T01:03:38;95779.28;;;8.10;nan
23303;BME280;11820;48.738;9.092;2023-03-13T01:06:08;95777.69;;;8.09;nan
23303;BME280;11820;48.738;9.092;2023-03-13T01:08:33;95773.16;;;8.11;nan
23303;BME280;11820;48.738;9.092;2023-03-13T01:11:04;95765.41;;;8.11;nan
23303;BME280;11820;48.738;9.092;2023-03-13T01:13:30;95762.84;;;8.11;nan
23303;BME280;11820;48.738;9.092;2023-03-13T01:16:00;95759.69;;;8.15;nan
23303;BME280;11820;48.738;9.092;2023-03-13T01:18:26;95742.31;;;8.17;nan
23303;BME280;11820;48.738;9.092;2023-03-13T01:20:51;95749.84;;;8.19;nan
23303;BME280;11820;48.738;9.092;2023-03-13T01:23:17;95742.72;;;8.21;nan
23303;BME280;11820;48.738;9.092;2023-03-13T01:25:42;95735.19;;;8.26;nan
23303;BME280;11820;48.738;9.092;2023-03-13T01:28:08;95737.22;;;8.30;nan
23303;BME280;11820;48.738;9.092;2023-03-13T01:30:33;95731.66;;;8.33;nan
23303;BME280;11820;48.738;9.092;2023-03-13T01:32:58;95733.84;;;8.36;nan
23303;BME280;11820;48.738;9.092;2023-03-13T01:35:24;95730.13;;;8.39;nan
23303;BME280;11820;48.738;9.092;2023-03-13T01:37:49;95720.03;;;8.44;nan
23303;BME280;11820;48.738;9.092;2023-03-13T01:40:14;95714.47;;;8.47;nan
23303;BME280;11820;48.738;9.092;2023-03-13T01:42:57;95711.91;;;8.47;nan
23303;BME280;11820;48.738;9.092;2023-03-13T01:45:53;95700.81;;;8.53;nan
23303;BME280;11820;48.738;9.092;2023-03-13T01:48:29;95701.66;;;8.60;nan
23303;BME280;11820;48.738;9.092;2023-03-13T01:50:55;95684.00;;;8.63;nan
23303;BME280;11820;48.738;9.092;2023-03-13T01:53:23;95687.41;;;8.70;nan
23303;BME280;11820;48.738;9.092;2023-03-13T01:55:49;95681.63;;;8.75;nan
23303;BME280;11820;48.738;9.092;2023-03-13T01:58:16;95676.69;;;8.80;nan
23303;BME280;11820;48.738;9.092;2023-03-13T02:00:42;95666.59;;;8.78;nan
23303;BME280;11820;48.738;9.092;2023-03-13T02:03:10;95666.00;;;8.83;nan
23303;BME280;11820;48.738;9.092;2023-03-13T02:05:38;95667.97;;;8.81;nan
23303;BME280;11820;48.738;9.092;2023-03-13T02:08:17;95660.84;;;8.83;nan
23303;BME280;11820;48.738;9.092;2023-03-13T02:11:00;95656.88;;;8.87;nan
23303;BME280;11820;48.738;9.092;2023-03-13T02:13:28;95658.66;;;8.86;nan
23303;BME280;11820;48.738;9.092;2023-03-13T02:15:54;95655.28;;;8.86;nan
23303;BME280;11820;48.738;9.092;2023-03-13T02:18:19;95647.56;;;8.86;nan
23303;BME280;11820;48.738;9.092;2023-03-13T02:20:46;95653.72;;;8.85;nan
23303;BME280;11820;48.738;9.092;2023-03-13T02:23:23;95657.47;;;8.89;nan
23303;BME280;11820;48.738;9.092;2023-03-13T02:25:51;95661.63;;;8.90;nan
23303;BME280;11820;48.738;9.092;2023-03-13T02:28:26;95654.88;;;9.02;nan
23303;BME280;11820;48.738;9.092;2023-03-13T02:30:57;95643.19;;;9.06;nan
23303;BME280;11820;48.738;9.092;2023-03-13T02:33:27;95645.16;;;9.04;nan
23303;BME280;11820;48.738;9.092;2023-03-13T02:35:53;95636.66;;;9.10;nan
23303;BME280;11820;48.738;9.092;2023-03-13T02:38:23;95635.66;;;9.11;nan
23303;BME280;11820;48.738;9.092;2023-03-13T02:40:49;95634.63;;;9.18;nan
23303;BME280;11820;48.738;9.092;2023-03-13T02:43:23;95621.56;;;9.26;nan
23303;BME280;11820;48.738;9.092;2023-03-13T02:46:22;95616.00;;;9.29;nan
23303;BME280;11820;48.738;9.092;2023-03-13T02:48:50;95615.75;;;9.31;nan
23303;BME280;11820;48.738;9.092;2023-03-13T02:51:36;95602.50;;;9.34;nan
23303;BME280;11820;48.738;9.092;2023-03-13T02:54:09;95592.53;;;9.37;nan
23303;BME280;11820;48.738;9.092;2023-03-13T02:56:39;95597.50;;;9.39;nan
23303;BME280;11820;48.738;9.092;2023-03-13T02:59:05;95597.28;;;9.40;nan
23303;BME280;11820;48.738;9.092;2023-03-13T03:01:31;95590.16;;;9.42;nan
23303;BME280;11820;48.738;9.092;2023-03-13T03:03:57;95592.53;;;9.44;nan
23303;BME280;11820;48.738;9.092;2023-03-13T03:06:22;95577.63;;;9.46;nan
23303;BME280;11820;48.738;9.092;2023-03-13T03:08:48;95569.13;;;9.45;nan
23303;BME280;11820;48.738;9.092;2023-03-13T03:11:13;95556.00;;;9.47;nan
23303;BME280;11820;48.738;9.092;2023-03-13T03:13:38;95565.91;;;9.50;nan
23303;BME280;11820;48.738;9.092;2023-03-13T03:16:12;95565.91;;;9.50;nan
23303;BME280;11820;48.738;9.092;2023-03-13T03:18:39;95563.91;;;9.52;nan
23303;BME280;11820;48.738;9.092;2023-03-13T03:21:05;95557.97;;;9.51;nan
23303;BME280;11820;48.738;9.092;2023-03-13T03:23:33;95565.13;;;9.49;nan
23303;BME280;11820;48.738;9.092;2023-03-13T03:25:59;95571.47;;;9.53;nan
23303;BME280;11820;48.738;9.092;2023-03-13T03:28:25;95560.94;;;9.55;nan
23303;BME280;11820;48.738;9.092;2023-03-13T03:30:50;95548.03;;;9.55;nan
23303;BME280;11820;48.738;9.092;2023-03-13T03:33:19;95559.94;;;9.56;nan
23303;BME280;11820;48.738;9.092;2023-03-13T03:35:44;95548.25;;;9.53;nan
23303;BME280;11820;48.738;9.092;2023-03-13T03:38:09;95547.44;;;9.53;nan
23303;BME280;11820;48.738;9.092;2023-03-13T03:40:35;95537.31;;;9.58;nan
23303;BME280;11820;48.738;9.092;2023-03-13T03:43:00;95544.06;;;9.59;nan
23303;BME280;11820;48.738;9.092;2023-03-13T03:45:26;95543.41;;;9.69;nan
23303;BME280;11820;48.738;9.092;2023-03-13T03:47:51;95538.41;;;9.74;nan
23303;BME280;11820;48.738;9.092;2023-03-13T03:50:17;95529.66;;;9.75;nan
23303;BME280;11820;48.738;9.092;2023-03-13T03:52:42;95543.69;;;9.92;nan
23303;BME280;11820;48.738;9.092;2023-03-13T03:55:08;95542.28;;;10.03;nan
23303;BME280;11820;48.738;9.092;2023-03-13T03:57:33;95548.41;;;10.08;nan
23303;BME280;11820;48.738;9.092;2023-03-13T03:59:58;95549.91;;;10.22;nan
23303;BME280;11820;48.738;9.092;2023-03-13T04:02:24;95560.81;;;10.24;nan
23303;BME280;11820;48.738;9.092;2023-03-13T04:04:49;95548.25;;;10.34;nan
23303;BME280;11820;48.738;9.092;2023-03-13T04:07:14;95546.56;;;10.46;nan
23303;BME280;11820;48.738;9.092;2023-03-13T04:09:39;95536.22;;;10.46;nan
23303;BME280;11820;48.738;9.092;2023-03-13T04:12:05;95508.16;;;10.50;nan
23303;BME280;11820;48.738;9.092;2023-03-13T04:14:30;95522.81;;;10.56;nan
23303;BME280;11820;48.738;9.092;2023-03-13T04:16:56;95526.84;;;10.52;nan
23303;BME280;11820;48.738;9.092;2023-03-13T04:19:21;95529.97;;;10.60;nan
23303;BME280;11820;48.738;9.092;2023-03-13T04:21:46;95532.28;;;10.68;nan
23303;BME280;11820;48.738;9.092;2023-03-13T04:24:12;95534.63;;;10.70;nan
23303;BME280;11820;48.738;9.092;2023-03-13T04:26:37;95514.75;;;10.70;nan
23303;BME280;11820;48.738;9.092;2023-03-13T04:29:02;95515.31;;;10.72;nan
23303;BME280;11820;48.738;9.092;2023-03-13T04:31:30;95511.75;;;10.73;nan
23303;BME280;11820;48.738;9.092;2023-03-13T04:33:55;95523.28;;;10.71;nan
23303;BME280;11820;48.738;9.092;2023-03-13T04:36:21;95515.13;;;10.74;nan
23303;BME280;11820;48.738;9.092;2023-03-13T04:38:46;95501.97;;;10.75;nan
23303;BME280;11820;48.738;9.092;2023-03-13T04:41:11;95513.91;;;10.76;nan
23303;BME280;11820;48.738;9.092;2023-03-13T04:43:37;95514.31;;;10.73;nan
23303;BME280;11820;48.738;9.092;2023-03-13T04:46:02;95512.31;;;10.75;nan
23303;BME280;11820;48.738;9.092;2023-03-13T04:48:27;95492.06;;;10.72;nan
23303;BME280;11820;48.738;9.092;2023-03-13T04:50:52;95495.66;;;10.71;nan
23303;BME280;11820;48.738;9.092;2023-03-13T04:53:18;95509.78;;;10.69;nan
23303;BME280;11820;48.738;9.092;2023-03-13T04:55:43;95489.31;;;10.67;nan
23303;BME280;11820;48.738;9.092;2023-03-13T04:58:09;95487.75;;;10.66;nan
23303;BME280;11820;48.738;9.092;2023-03-13T05:00:34;95487.09;;;10.71;nan
23303;BME280;11820;48.738;9.092;2023-03-13T05:03:00;95492.91;;;10.66;nan
23303;BME280;11820;48.738;9.092;2023-03-13T05:05:25;95491.09;;;10.67;nan
23303;BME280;11820;48.738;9.092;2023-03-13T05:07:50;95494.50;;;10.67;nan
23303;BME280;11820;48.738;9.092;2023-03-13T05:10:15;95474.38;;;10.69;nan
23303;BME280;11820;48.738;9.092;2023-03-13T05:12:41;95485.16;;;10.66;nan
23303;BME280;11820;48.738;9.092;2023-03-13T05:15:07;95492.69;;;10.68;nan
23303;BME280;11820;48.738;9.092;2023-03-13T05:17:32;95477.75;;;10.70;nan
23303;BME280;11820;48.738;9.092;2023-03-13T05:19:58;95494.50;;;10.67;nan
23303;BME280;11820;48.738;9.092;2023-03-13T05:22:23;95470.78;;;10.70;nan
23303;BME280;11820;48.738;9.092;2023-03-13T05:24:48;95474.97;;;10.71;nan
23303;BME280;11820;48.738;9.092;2023-03-13T05:27:13;95491.06;;;10.73;nan
23303;BME280;11820;48.738;9.092;2023-03-13T05:29:39;95482.28;;;10.74;nan
23303;BME280;11820;48.738;9.092;2023-03-13T05:32:04;95497.22;;;10.72;nan
23303;BME280;11820;48.738;9.092;2023-03-13T05:34:30;95492.00;;;10.79;nan
23303;BME280;11820;48.738;9.092;2023-03-13T05:36:55;95478.25;;;10.78;nan
23303;BME280;11820;48.738;9.092;2023-03-13T05:39:20;95494.34;;;10.80;nan
23303;BME280;11820;48.738;9.092;2023-03-13T05:41:45;95478.63;;;10.82;nan
23303;BME280;11820;48.738;9.092;2023-03-13T05:44:11;95474.03;;;10.84;nan
23303;BME280;11820;48.738;9.092;2023-03-13T05:46:36;95479.00;;;10.85;nan
23303;BME280;11820;48.738;9.092;2023-03-13T05:49:01;95471.47;;;10.84;nan
23303;BME280;11820;48.738;9.092;2023-03-13T05:51:27;95460.25;;;10.90;nan
23303;BME280;11820;48.738;9.092;2023-03-13T05:53:52;95466.44;;;10.89;nan
23303;BME280;11820;48.738;9.092;2023-03-13T05:56:17;95475.19;;;10.88;nan
23303;BME280;11820;48.738;9.092;2023-03-13T05:58:43;95470.81;;;10.88;nan
23303;BME280;11820;48.738;9.092;2023-03-13T06:01:10;95450.56;;;10.85;nan
23303;BME280;11820;48.738;9.092;2023-03-13T06:03:35;95454.50;;;10.88;nan
23303;BME280;11820;48.738;9.092;2023-03-13T06:06:01;95450.91;;;10.89;nan
23303;BME280;11820;48.738;9.092;2023-03-13T06:08:26;95448.47;;;10.94;nan
23303;BME280;11820;48.738;9.092;2023-03-13T06:10:52;95473.41;;;11.06;nan
23303;BME280;11820;48.738;9.092;2023-03-13T06:13:17;95464.28;;;11.04;nan
23303;BME280;11820;48.738;9.092;2023-03-13T06:15:42;95470.81;;;11.06;nan
23303;BME280;11820;48.738;9.092;2023-03-13T06:18:08;95460.91;;;11.03;nan
23303;BME280;11820;48.738;9.092;2023-03-13T06:20:33;95479.56;;;11.05;nan
23303;BME280;11820;48.738;9.092;2023-03-13T06:22:58;95492.50;;;11.05;nan
23303;BME280;11820;48.738;9.092;2023-03-13T06:25:24;95485.31;;;11.07;nan
23303;BME280;11820;48.738;9.092;2023-03-13T06:27:49;95487.91;;;11.07;nan
23303;BME280;11820;48.738;9.092;2023-03-13T06:30:15;95488.72;;;11.08;nan
23303;BME280;11820;48.738;9.092;2023-03-13T06:32:41;95483.31;;;11.09;nan
23303;BME280;11820;48.738;9.092;2023-03-13T06:35:06;95488.28;;;11.11;nan
23303;BME280;11820;48.738;9.092;2023-03-13T06:37:32;95470.97;;;11.11;nan
23303;BME280;11820;48.738;9.092;2023-03-13T06:39:57;95482.91;;;11.12;nan
23303;BME280;11820;48.738;9.092;2023-03-13T06:42:23;95461.97;;;11.14;nan
23303;BME280;11820;48.738;9.092;2023-03-13T06:44:48;95469.53;;;11.15;nan
23303;BME280;11820;48.738;9.092;2023-03-13T06:47:13;95474.28;;;11.18;nan
23303;BME280;11820;48.738;9.092;2023-03-13T06:49:39;95466.06;;;11.21;nan
23303;BME280;11820;48.738;9.092;2023-03-13T06:52:04;95479.78;;;11.22;nan
23303;BME280;11820;48.738;9.092;2023-03-13T06:54:29;95463.50;;;11.21;nan
23303;BME280;11820;48.738;9.092;2023-03-13T06:56:55;95481.59;;;11.21;nan
23303;BME280;11820;48.738;9.092;2023-03-13T06:59:20;95478.59;;;11.24;nan
23303;BME280;11820;48.738;9.092;2023-03-13T07:01:45;95488.56;;;11.21;nan
23303;BME280;11820;48.738;9.092;2023-03-13T07:04:12;95491.97;;;11.21;nan
23303;BME280;11820;48.738;9.092;2023-03-13T07:06:37;95492.38;;;11.18;nan
23303;BME280;11820;48.738;9.092;2023-03-13T07:09:03;95497.13;;;11.21;nan
23303;BME280;11820;48.738;9.092;2023-03-13T07:11:29;95495.56;;;11.20;nan
23303;BME280;11820;48.738;9.092;2023-03-13T07:13:54;95494.75;;;11.20;nan
23303;BME280;11820;48.738;9.092;2023-03-13T07:16:20;95494.97;;;11.18;nan
23303;BME280;11820;48.738;9.092;2023-03-13T07:18:46;95500.28;;;11.23;nan
23303;BME280;11820;48.738;9.092;2023-03-13T07:21:12;95495.13;;;11.23;nan
23303;BME280;11820;48.738;9.092;2023-03-13T07:23:38;95485.91;;;11.27;nan
23303;BME280;11820;48.738;9.092;2023-03-13T07:26:06;95481.53;;;11.27;nan
23303;BME280;11820;48.738;9.092;2023-03-13T07:28:32;95501.44;;;11.27;nan
23303;BME280;11820;48.738;9.092;2023-03-13T07:33:30;95482.31;;;11.28;nan
23303;BME280;11820;48.738;9.092;2023-03-13T07:35:55;95479.28;;;11.31;nan
23303;BME280;11820;48.738;9.092;2023-03-13T07:38:20;95467.94;;;11.32;nan
23303;BME280;11820;48.738;9.092;2023-03-13T07:40:50;95470.31;;;11.33;nan
23303;BME280;11820;48.738;9.092;2023-03-13T07:43:16;95468.28;;;11.35;nan
23303;BME280;11820;48.738;9.092;2023-03-13T07:45:56;95463.13;;;11.35;nan
23303;BME280;11820;48.738;9.092;2023-03-13T07:48:23;95456.72;;;11.38;nan
23303;BME280;11820;48.738;9.092;2023-03-13T07:50:49;95457.88;;;11.42;nan
23303;BME280;11820;48.738;9.092;2023-03-13T07:53:14;95456.84;;;11.43;nan
23303;BME280;11820;48.738;9.092;2023-03-13T07:55:54;95459.00;;;11.46;nan
23303;BME280;11820;48.738;9.092;2023-03-13T07:58:20;95469.13;;;11.47;nan
23303;BME280;11820;48.738;9.092;2023-03-13T08:00:45;95453.75;;;11.52;nan
23303;BME280;11820;48.738;9.092;2023-03-13T08:03:11;95446.56;;;11.54;nan
23303;BME280;11820;48.738;9.092;2023-03-13T08:05:36;95452.91;;;11.58;nan
23303;BME280;11820;48.738;9.092;2023-03-13T08:08:01;95448.66;;;11.64;nan
23303;BME280;11820;48.738;9.092;2023-03-13T08:10:27;95431.09;;;11.66;nan
23303;BME280;11820;48.738;9.092;2023-03-13T08:12:52;95426.03;;;11.71;nan
23303;BME280;11820;48.738;9.092;2023-03-13T08:15:17;95405.56;;;11.81;nan
23303;BME280;11820;48.738;9.092;2023-03-13T08:17:47;95406.28;;;11.88;nan
23303;BME280;11820;48.738;9.092;2023-03-13T08:20:13;95396.91;;;11.98;nan
23303;BME280;11820;48.738;9.092;2023-03-13T08:22:38;95404.03;;;12.03;nan
23303;BME280;11820;48.738;9.092;2023-03-13T08:25:03;95409.34;;;12.08;nan
23303;BME280;11820;48.738;9.092;2023-03-13T08:27:29;95411.06;;;12.14;nan
23303;BME280;11820;48.738;9.092;2023-03-13T08:29:54;95442.03;;;12.20;nan
23303;BME280;11820;48.738;9.092;2023-03-13T08:32:19;95417.47;;;12.23;nan
23303;BME280;11820;48.738;9.092;2023-03-13T08:34:46;95437.75;;;12.26;nan
23303;BME280;11820;48.738;9.092;2023-03-13T08:37:14;95432.13;;;12.29;nan
23303;BME280;11820;48.738;9.092;2023-03-13T08:39:40;95410.81;;;12.27;nan
23303;BME280;11820;48.738;9.092;2023-03-13T08:42:07;95428.19;;;12.26;nan
23303;BME280;11820;48.738;9.092;2023-03-13T08:44:35;95414.78;;;12.29;nan
23303;BME280;11820;48.738;9.092;2023-03-13T08:47:00;95416.34;;;12.30;nan
23303;BME280;11820;48.738;9.092;2023-03-13T08:49:26;95413.88;;;12.35;nan
23303;BME280;11820;48.738;9.092;2023-03-13T08:51:51;95423.78;;;12.38;nan
23303;BME280;11820;48.738;9.092;2023-03-13T08:54:16;95430.56;;;12.39;nan
23303;BME280;11820;48.738;9.092;2023-03-13T08:56:42;95421.31;;;12.43;nan
23303;BME280;11820;48.738;9.092;2023-03-13T08:59:09;95424.81;;;12.49;nan
23303;BME280;11820;48.738;9.092;2023-03-13T09:01:35;95419.75;;;12.54;nan
23303;BME280;11820;48.738;9.092;2023-03-13T09:04:02;95424.72;;;12.55;nan
23303;BME280;11820;48.738;9.092;2023-03-13T09:06:27;95424.72;;;12.55;nan
23303;BME280;11820;48.738;9.092;2023-03-13T09:08:55;95408.44;;;12.60;nan
23303;BME280;11820;48.738;9.092;2023-03-13T09:11:21;95435.66;;;12.57;nan
23303;BME280;11820;48.738;9.092;2023-03-13T09:13:48;95430.00;;;12.60;nan
23303;BME280;11820;48.738;9.092;2023-03-13T09:16:22;95431.47;;;12.68;nan
23303;BME280;11820;48.738;9.092;2023-03-13T09:18:49;95419.63;;;12.72;nan
23303;BME280;11820;48.738;9.092;2023-03-13T09:21:26;95429.53;;;12.75;nan
23303;BME280;11820;48.738;9.092;2023-03-13T09:23:51;95436.66;;;12.79;nan
23303;BME280;11820;48.738;9.092;2023-03-13T09:26:18;95411.84;;;12.83;nan
23303;BME280;11820;48.738;9.092;2023-03-13T09:28:44;95423.25;;;12.94;nan
23303;BME280;11820;48.738;9.092;2023-03-13T09:31:15;95421.97;;;12.96;nan
23303;BME280;11820;48.738;9.092;2023-03-13T09:33:42;95417.22;;;13.04;nan
23303;BME280;11820;48.738;9.092;2023-03-13T09:36:09;95422.97;;;13.06;nan
23303;BME280;11820;48.738;9.092;2023-03-13T09:38:34;95422.06;;;13.12;nan
23303;BME280;11820;48.738;9.092;2023-03-13T09:46:12;95437.00;;;13.33;nan
23303;BME280;11820;48.738;9.092;2023-03-13T09:48:47;95431.88;;;13.50;nan
23303;BME280;11820;48.738;9.092;2023-03-13T09:51:18;95462.31;;;13.66;nan
23303;BME280;11820;48.738;9.092;2023-03-13T09:53:52;95456.16;;;13.83;nan
23303;BME280;11820;48.738;9.092;2023-03-13T09:56:25;95424.50;;;13.86;nan
23303;BME280;11820;48.738;9.092;2023-03-13T09:58:56;95416.34;;;14.11;nan
23303;BME280;11820;48.738;9.092;2023-03-13T10:01:29;95404.88;;;14.23;nan
23303;BME280;11820;48.738;9.092;2023-03-13T10:04:06;95410.22;;;14.33;nan
23303;BME280;11820;48.738;9.092;2023-03-13T10:06:35;95410.00;;;14.35;nan
23303;BME280;11820;48.738;9.092;2023-03-13T10:09:15;95412.00;;;14.65;nan
23303;BME280;11820;48.738;9.092;2023-03-13T10:11:43;95421.84;;;14.80;nan
23303;BME280;11820;48.738;9.092;2023-03-13T10:14:19;95395.59;;;15.03;nan
23303;BME280;11820;48.738;9.092;2023-03-13T10:16:55;95413.81;;;15.03;nan
23303;BME280;11820;48.738;9.092;2023-03-13T10:19:31;95398.78;;;15.10;nan
23303;BME280;11820;48.738;9.092;2023-03-13T10:21:58;95391.59;;;15.17;nan
23303;BME280;11820;48.738;9.092;2023-03-13T10:24:37;95390.91;;;15.26;nan
23303;BME280;11820;48.738;9.092;2023-03-13T10:27:06;95382.50;;;15.41;nan
23303;BME280;11820;48.738;9.092;2023-03-13T10:29:32;95391.84;;;15.58;nan
23303;BME280;11820;48.738;9.092;2023-03-13T10:32:03;95395.00;;;15.92;nan
23303;BME280;11820;48.738;9.092;2023-03-13T10:37:31;95394.91;;;16.39;nan
23303;BME280;11820;48.738;9.092;2023-03-13T10:40:22;95385.19;;;16.71;nan
23303;BME280;11820;48.738;9.092;2023-03-13T10:42:50;95375.25;;;16.68;nan
23303;BME280;11820;48.738;9.092;2023-03-13T10:45:18;95377.28;;;17.08;nan
23303;BME280;11820;48.738;9.092;2023-03-13T10:47:44;95366.69;;;19.09;nan
23303;BME280;11820;48.738;9.092;2023-03-13T10:50:22;95358.00;;;23.25;nan
23303;BME280;11820;48.738;9.092;2023-03-13T10:52:49;95365.19;;;20.04;nan
23303;BME280;11820;48.738;9.092;2023-03-13T10:55:21;95363.19;;;18.25;nan
23303;BME280;11820;48.738;9.092;2023-03-13T10:58:03;95362.84;;;19.55;nan
23303;BME280;11820;48.738;9.092;2023-03-13T11:00:39;95365.22;;;17.68;nan
23303;BME280;11820;48.738;9.092;2023-03-13T11:03:22;95352.66;;;18.70;nan
23303;BME280;11820;48.738;9.092;2023-03-13T11:05:56;95360.28;;;17.97;nan
23303;BME280;11820;48.738;9.092;2023-03-13T11:08:23;95348.94;;;17.36;nan
23303;BME280;11820;48.738;9.092;2023-03-13T11:13:42;95346.06;;;16.76;nan
23303;BME280;11820;48.738;9.092;2023-03-13T11:16:16;95350.25;;;17.39;nan
23303;BME280;11820;48.738;9.092;2023-03-13T11:21:53;95337.16;;;17.34;nan
23303;BME280;11820;48.738;9.092;2023-03-13T11:24:29;95323.38;;;17.58;nan
23303;BME280;11820;48.738;9.092;2023-03-13T11:30:23;95291.84;;;20.41;nan
23303;BME280;11820;48.738;9.092;2023-03-13T11:38:41;95284.50;;;22.92;nan
23303;BME280;11820;48.738;9.092;2023-03-13T11:44:15;95257.31;;;25.36;nan
23303;BME280;11820;48.738;9.092;2023-03-13T11:47:08;95235.38;;;25.44;nan
23303;BME280;11820;48.738;9.092;2023-03-13T11:57:28;95211.88;;;23.43;nan
23303;BME280;11820;48.738;9.092;2023-03-13T12:02:30;95206.31;;;23.44;nan
23303;BME280;11820;48.738;9.092;2023-03-13T12:05:04;95203.41;;;22.97;nan
23303;BME280;11820;48.738;9.092;2023-03-13T12:07:35;95198.63;;;23.13;nan
23303;BME280;11820;48.738;9.092;2023-03-13T12:10:25;95207.72;;;22.80;nan
23303;BME280;11820;48.738;9.092;2023-03-13T12:13:21;95196.50;;;22.34;nan
23303;BME280;11820;48.738;9.092;2023-03-13T12:15:54;95183.81;;;22.36;nan
23303;BME280;11820;48.738;9.092;2023-03-13T12:18:41;95167.66;;;21.97;nan
23303;BME280;11820;48.738;9.092;2023-03-13T12:26:39;95148.97;;;22.12;nan
23303;BME280;11820;48.738;9.092;2023-03-13T12:32:03;95146.78;;;21.87;nan
23303;BME280;11820;48.738;9.092;2023-03-13T12:37:22;95111.59;;;21.51;nan
23303;BME280;11820;48.738;9.092;2023-03-13T12:39:56;95097.91;;;21.81;nan
23303;BME280;11820;48.738;9.092;2023-03-13T12:42:38;95088.28;;;21.76;nan
23303;BME280;11820;48.738;9.092;2023-03-13T12:45:07;95093.84;;;22.02;nan
23303;BME280;11820;48.738;9.092;2023-03-13T12:47:54;95078.72;;;22.21;nan
23303;BME280;11820;48.738;9.092;2023-03-13T12:55:57;95048.34;;;22.37;nan
23303;BME280;11820;48.738;9.092;2023-03-13T13:03:58;95032.41;;;21.66;nan
23303;BME280;11820;48.738;9.092;2023-03-13T13:06:26;95041.56;;;22.58;nan
23303;BME280;11820;48.738;9.092;2023-03-13T13:14:35;95017.16;;;21.49;nan
23303;BME280;11820;48.738;9.092;2023-03-13T13:16:52;95008.22;;;21.64;nan
23303;BME280;11820;48.738;9.092;2023-03-13T13:25:26;94993.22;;;21.06;nan
23303;BME280;11820;48.738;9.092;2023-03-13T13:27:52;95001.56;;;20.94;nan
23303;BME280;11820;48.738;9.092;2023-03-13T13:37:37;94981.28;;;19.47;nan
23303;BME280;11820;48.738;9.092;2023-03-13T13:42:58;94962.31;;;19.32;nan
23303;BME280;11820;48.738;9.092;2023-03-13T13:45:25;94950.84;;;19.28;nan
23303;BME280;11820;48.738;9.092;2023-03-13T13:48:23;94941.09;;;19.52;nan
23303;BME280;11820;48.738;9.092;2023-03-13T13:53:43;94943.28;;;19.86;nan
23303;BME280;11820;48.738;9.092;2023-03-13T13:56:47;94934.28;;;20.11;nan
23303;BME280;11820;48.738;9.092;2023-03-13T14:01:46;94920.25;;;20.52;nan
23303;BME280;11820;48.738;9.092;2023-03-13T14:04:16;94911.97;;;20.45;nan
23303;BME280;11820;48.738;9.092;2023-03-13T14:06:46;94901.44;;;20.45;nan
23303;BME280;11820;48.738;9.092;2023-03-13T14:11:49;94896.28;;;20.40;nan
23303;BME280;11820;48.738;9.092;2023-03-13T14:14:16;94901.94;;;20.47;nan
23303;BME280;11820;48.738;9.092;2023-03-13T14:16:51;94896.69;;;20.15;nan
23303;BME280;11820;48.738;9.092;2023-03-13T14:19:34;94898.00;;;20.63;nan
23303;BME280;11820;48.738;9.092;2023-03-13T14:22:07;94890.13;;;20.63;nan
23303;BME280;11820;48.738;9.092;2023-03-13T14:24:33;94895.94;;;20.92;nan
23303;BME280;11820;48.738;9.092;2023-03-13T14:26:59;94861.63;;;21.38;nan
23303;BME280;11820;48.738;9.092;2023-03-13T14:29:24;94874.00;;;21.64;nan
23303;BME280;11820;48.738;9.092;2023-03-13T14:31:56;94871.59;;;21.89;nan
23303;BME280;11820;48.738;9.092;2023-03-13T14:34:23;94851.25;;;21.19;nan
23303;BME280;11820;48.738;9.092;2023-03-13T14:39:36;94832.22;;;21.84;nan
23303;BME280;11820;48.738;9.092;2023-03-13T14:42:04;94828.38;;;22.34;nan
23303;BME280;11820;48.738;9.092;2023-03-13T14:44:32;94834.22;;;22.84;nan
23303;BME280;11820;48.738;9.092;2023-03-13T14:47:03;94818.97;;;22.64;nan
23303;BME280;11820;48.738;9.092;2023-03-13T14:49:29;94813.59;;;22.77;nan
23303;BME280;11820;48.738;9.092;2023-03-13T14:52:17;94813.25;;;22.40;nan
23303;BME280;11820;48.738;9.092;2023-03-13T14:57:24;94799.06;;;22.49;nan
23303;BME280;11820;48.738;9.092;2023-03-13T14:59:51;94803.72;;;21.86;nan
23303;BME280;11820;48.738;9.092;2023-03-13T15:02:23;94801.84;;;22.53;nan
23303;BME280;11820;48.738;9.092;2023-03-13T15:07:16;94774.00;;;22.69;nan
23303;BME280;11820;48.738;9.092;2023-03-13T15:09:42;94763.59;;;23.11;nan
23303;BME280;11820;48.738;9.092;2023-03-13T15:12:12;94765.34;;;23.24;nan